Terminal Aerodrome Forecast
Issued by NWS

Home | Current Version | Previous Version | Text Only | Print | Product List | Glossary On
Versions: 1 2 3 4 5 6 7 8 9 10 11 12 13 14 15 16 17 18 19 20
000
FTUS43 KMQT 282338
TAFIWD
TAF
KIWD 282338Z 2900/2924 20007KT P6SM BKN110
     FM290300 20007KT P6SM BKN110 WS007/21035KT
     FM291000 19009KT P6SM -SHRA OVC110
     FM291500 24006KT 5SM -SHRA OVC030
     FM291900 29006KT 5SM -SHRA OVC020
     FM292200 33007KT 5SM -SHRA BR OVC010
      AMD LTD TO CLD VIS AND WIND=

USA.gov is the U.S. government's official web portal to all federal, state and local government web resources and services.